Time;durP1;ratioP1;P1;durP2;ratioP2;P2;SDS_P1;SDS_P2;PMS_P1;PMS_P2;Temp;Humidity;BMP_temperature;BMP_pressure;BME280_temperature;BME280_humidity;BME280_pressure;Samples;Min_cycle;Max_cycle;Signal;HPM_P1;HPM_P2
2023/05/05 00:00:20;;;;;;;12.30;2.10;;;;;;;13.17;100.00;100537.63;5057929;28;20088;-78
2023/05/05 00:02:46;;;;;;;10.95;2.00;;;;;;;13.17;100.00;100525.66;5012194;28;20041;-78
2023/05/05 00:05:12;;;;;;;12.13;2.33;;;;;;;13.17;100.00;100528.47;5069620;28;20362;-78
2023/05/05 00:07:37;;;;;;;11.57;2.33;;;;;;;13.15;100.00;100516.81;5027141;28;20071;-78
2023/05/05 00:10:03;;;;;;;9.80;2.00;;;;;;;13.15;100.00;100517.63;5028384;28;20094;-78
2023/05/05 00:12:29;;;;;;;10.18;2.22;;;;;;;13.16;100.00;100516.47;5054016;28;20045;-78
2023/05/05 00:14:54;;;;;;;11.25;2.38;;;;;;;13.15;100.00;100514.03;5047385;28;20107;-78
2023/05/05 00:17:20;;;;;;;12.95;2.58;;;;;;;13.19;100.00;100510.28;5048069;28;20040;-78
2023/05/05 00:19:45;;;;;;;11.95;1.85;;;;;;;13.18;100.00;100499.47;5048077;28;20047;-78
2023/05/05 00:22:11;;;;;;;10.40;2.10;;;;;;;13.19;100.00;100503.88;5044517;28;20029;-79
2023/05/05 00:24:36;;;;;;;11.05;2.30;;;;;;;13.21;100.00;100496.03;5028357;28;20025;-77
2023/05/05 00:27:02;;;;;;;11.75;2.33;;;;;;;13.17;100.00;100492.22;5064727;28;20039;-78
2023/05/05 00:29:28;;;;;;;14.10;2.30;;;;;;;13.16;100.00;100494.19;5061258;28;20116;-78
2023/05/05 00:31:53;;;;;;;11.95;2.08;;;;;;;13.16;100.00;100496.16;5048174;28;20545;-78
2023/05/05 00:34:19;;;;;;;10.95;2.25;;;;;;;13.17;100.00;100487.44;5081345;28;20085;-78
2023/05/05 00:36:44;;;;;;;9.02;2.20;;;;;;;13.15;100.00;100489.75;5064493;28;20025;-78
2023/05/05 00:39:10;;;;;;;10.20;1.83;;;;;;;13.18;100.00;100493.88;5064411;28;20032;-78
2023/05/05 00:41:35;;;;;;;12.88;2.42;;;;;;;13.16;100.00;100493.34;5081202;28;20055;-78
2023/05/05 00:44:01;;;;;;;9.55;1.83;;;;;;;13.17;100.00;100489.41;5025342;28;20021;-78
2023/05/05 00:46:28;;;;;;;7.82;1.88;;;;;;;13.18;100.00;100497.50;5040705;28;20032;-78
2023/05/05 00:48:53;;;;;;;10.45;2.00;;;;;;;13.16;100.00;100498.94;5041607;28;20029;-78
2023/05/05 00:51:19;;;;;;;12.95;2.40;;;;;;;13.17;100.00;100501.38;5037434;28;20032;-78
2023/05/05 00:53:45;;;;;;;9.02;1.90;;;;;;;13.19;100.00;100487.97;5064165;28;20024;-78
2023/05/05 00:56:15;;;;;;;9.73;2.38;;;;;;;13.18;100.00;100486.34;5034787;28;20017;-78
2023/05/05 00:58:43;;;;;;;11.25;2.05;;;;;;;13.16;100.00;100480.22;5061314;28;20392;-78
2023/05/05 01:01:10;;;;;;;9.23;1.98;;;;;;;13.19;100.00;100476.00;5028582;28;20025;-78
2023/05/05 01:03:38;;;;;;;13.18;2.30;;;;;;;13.19;100.00;100482.41;5047821;28;20020;-78
2023/05/05 01:06:32;;;;;;;8.70;2.35;;;;;;;13.22;100.00;100469.78;5045569;28;20028;-78
2023/05/05 01:09:00;;;;;;;12.95;2.10;;;;;;;13.23;100.00;100465.84;5070923;28;20036;-78
2023/05/05 01:12:03;;;;;;;6.82;1.75;;;;;;;13.21;100.00;100468.16;5080852;28;20306;-78
2023/05/05 01:14:49;;;;;;;10.93;2.40;;;;;;;13.23;100.00;100467.81;5076812;28;20397;-78
2023/05/05 01:17:21;;;;;;;9.73;2.25;;;;;;;13.26;100.00;100461.66;5048611;28;20119;-78
2023/05/05 01:19:58;;;;;;;13.57;3.20;;;;;;;13.26;100.00;100459.72;5044369;28;20039;-78
2023/05/05 01:22:27;;;;;;;12.13;2.85;;;;;;;13.28;100.00;100462.97;5044645;28;20075;-78
2023/05/05 01:24:58;;;;;;;11.48;2.05;;;;;;;13.29;100.00;100466.59;5061198;28;20033;-78
2023/05/05 01:27:43;;;;;;;16.63;2.70;;;;;;;13.32;100.00;100458.44;5044457;28;20038;-78
2023/05/05 01:30:46;;;;;;;11.75;2.30;;;;;;;13.33;100.00;100459.28;5050529;28;20041;-78
2023/05/05 01:33:13;;;;;;;7.68;2.08;;;;;;;13.33;100.00;100454.50;5051279;28;20028;-78
2023/05/05 01:35:44;;;;;;;13.73;2.28;;;;;;;13.35;100.00;100457.81;5040806;28;20081;-78
2023/05/05 01:38:18;;;;;;;11.38;2.22;;;;;;;13.35;100.00;100446.66;5060921;28;20028;-78
2023/05/05 01:40:48;;;;;;;11.75;2.33;;;;;;;13.34;100.00;100438.59;5057047;28;20439;-78
2023/05/05 01:43:14;;;;;;;12.55;2.47;;;;;;;13.35;100.00;100437.47;5028254;28;20029;-78
2023/05/05 01:45:41;;;;;;;11.48;2.45;;;;;;;13.37;100.00;100427.66;5030936;28;20048;-78
2023/05/05 01:48:07;;;;;;;10.13;2.05;;;;;;;13.39;100.00;100438.47;5043972;28;20052;-78
2023/05/05 01:50:32;;;;;;;9.38;2.00;;;;;;;13.41;100.00;100433.41;5060749;28;20364;-78
2023/05/05 01:52:57;;;;;;;10.95;2.50;;;;;;;13.42;100.00;100432.25;5030374;28;20482;-78
2023/05/05 01:55:24;;;;;;;10.48;2.00;;;;;;;13.39;100.00;100441.28;5043875;28;20067;-78
2023/05/05 01:57:50;;;;;;;10.50;2.17;;;;;;;13.39;100.00;100446.84;5060562;28;20027;-78
2023/05/05 02:00:16;;;;;;;7.65;1.88;;;;;;;13.40;100.00;100448.50;5060736;28;20029;-77
2023/05/05 02:02:44;;;;;;;9.20;2.30;;;;;;;13.39;100.00;100441.28;5060334;28;20135;-78
2023/05/05 02:05:09;;;;;;;11.23;2.40;;;;;;;13.41;100.00;100455.72;5019701;28;20025;-78
2023/05/05 02:07:35;;;;;;;12.07;2.55;;;;;;;13.39;100.00;100455.22;5059785;28;20089;-78
2023/05/05 02:10:01;;;;;;;9.38;1.90;;;;;;;13.39;100.00;100452.44;5038507;28;20052;-78
2023/05/05 02:12:27;;;;;;;9.68;2.10;;;;;;;13.39;100.00;100455.22;5032651;28;20028;-78
2023/05/05 02:14:52;;;;;;;10.70;2.20;;;;;;;13.41;100.00;100447.38;5020509;28;20049;-78
2023/05/05 02:17:18;;;;;;;12.98;2.88;;;;;;;13.39;100.00;100449.63;5038613;28;20098;-78
2023/05/05 02:19:44;;;;;;;10.40;2.53;;;;;;;13.40;100.00;100445.72;5059902;28;20040;-78
2023/05/05 02:22:11;;;;;;;11.88;2.22;;;;;;;13.41;100.00;100444.56;5039718;28;20106;-78
2023/05/05 02:24:36;;;;;;;9.95;2.40;;;;;;;13.43;100.00;100447.03;5023358;28;20057;-78
2023/05/05 02:27:02;;;;;;;10.13;2.22;;;;;;;13.43;100.00;100447.03;5014561;28;20547;-78
2023/05/05 02:29:31;;;;;;;11.52;2.38;;;;;;;13.42;100.00;100451.78;5058625;28;20028;-78
2023/05/05 02:32:01;;;;;;;10.05;2.28;;;;;;;13.42;100.00;100449.00;5060086;28;20055;-78
2023/05/05 02:34:26;;;;;;;10.48;2.40;;;;;;;13.44;100.00;100445.91;5023453;28;20044;-78
2023/05/05 02:36:55;;;;;;;9.43;2.00;;;;;;;13.41;100.00;100450.16;5016858;28;20032;-77
2023/05/05 02:39:24;;;;;;;11.43;3.05;;;;;;;13.42;100.00;100451.78;5026967;28;20025;-78
2023/05/05 02:41:51;;;;;;;11.18;2.42;;;;;;;13.42;100.00;100454.59;5024842;28;20036;-78
2023/05/05 02:44:16;;;;;;;8.35;2.15;;;;;;;13.41;100.00;100452.94;5023517;28;20032;-78
2023/05/05 02:46:42;;;;;;;9.85;2.22;;;;;;;13.44;100.00;100460.69;5054490;28;20029;-78
2023/05/05 02:49:07;;;;;;;7.60;2.10;;;;;;;13.40;100.00;100459.69;5042824;28;20117;-78
2023/05/05 02:51:32;;;;;;;9.95;2.40;;;;;;;13.39;100.00;100469.16;5057202;28;20032;-78
2023/05/05 02:53:58;;;;;;;16.60;2.30;;;;;;;13.39;100.00;100471.94;5039734;28;20063;-78
2023/05/05 02:56:38;;;;;;;9.40;1.95;;;;;;;13.40;100.00;100471.66;5054223;28;20020;-78
2023/05/05 02:59:13;;;;;;;10.20;1.90;;;;;;;13.40;100.00;100468.88;5059369;28;20066;-78
2023/05/05 03:01:55;;;;;;;9.02;1.80;;;;;;;13.41;100.00;100466.91;5042198;28;20040;-76
2023/05/05 03:04:41;;;;;;;9.93;2.40;;;;;;;13.44;100.00;100471.03;5043646;28;20541;-78
2023/05/05 03:07:36;;;;;;;10.27;2.00;;;;;;;13.44;100.00;100454.28;5062653;28;20032;-78
2023/05/05 03:10:07;;;;;;;8.45;2.20;;;;;;;13.45;100.00;100465.09;5053743;28;20047;-78
2023/05/05 03:12:36;;;;;;;11.32;2.22;;;;;;;13.45;100.00;100453.94;5042449;28;20032;-78
2023/05/05 03:15:02;;;;;;;10.43;2.50;;;;;;;13.46;100.00;100454.81;5025903;28;20036;-78
2023/05/05 03:17:28;;;;;;;8.18;2.05;;;;;;;13.45;100.00;100456.75;5035682;28;20032;-79
2023/05/05 03:19:53;;;;;;;7.47;2.10;;;;;;;13.48;100.00;100450.53;5045832;28;20496;-78
2023/05/05 03:22:19;;;;;;;13.23;2.25;;;;;;;13.47;100.00;100443.31;5058859;28;20033;-79
2023/05/05 03:24:48;;;;;;;13.68;2.20;;;;;;;13.52;100.00;100451.56;5022240;28;20021;-79
2023/05/05 03:27:15;;;;;;;9.02;2.20;;;;;;;13.50;100.00;100451.03;5025860;28;20107;-79
2023/05/05 03:29:40;;;;;;;9.55;1.95;;;;;;;13.52;100.00;100448.78;5052568;28;20112;-78
2023/05/05 03:32:06;;;;;;;9.23;2.42;;;;;;;13.52;100.00;100445.97;5050991;28;20033;-79
2023/05/05 03:34:32;;;;;;;14.73;2.97;;;;;;;13.54;100.00;100442.88;5039101;28;20489;-78
2023/05/05 03:36:57;;;;;;;11.18;2.20;;;;;;;13.53;100.00;100442.03;5023352;28;20032;-78
2023/05/05 03:39:23;;;;;;;7.43;1.88;;;;;;;13.53;100.00;100441.22;5018039;28;20436;-78
2023/05/05 03:41:48;;;;;;;9.05;1.90;;;;;;;13.55;100.00;100436.16;5069576;28;20032;-78
2023/05/05 03:44:14;;;;;;;11.02;1.92;;;;;;;13.55;100.00;100434.19;5058482;28;20080;-78
2023/05/05 03:46:39;;;;;;;8.85;2.22;;;;;;;13.54;100.00;100438.13;5058259;28;20032;-78
2023/05/05 03:49:05;;;;;;;8.75;1.95;;;;;;;13.55;100.00;100436.97;5058738;28;20043;-78
2023/05/05 03:51:31;;;;;;;10.23;2.20;;;;;;;13.53;100.00;100425.31;5057974;28;20416;-78
2023/05/05 03:53:56;;;;;;;11.80;2.10;;;;;;;13.54;100.00;100426.13;5058481;28;20028;-78
2023/05/05 03:56:22;;;;;;;9.80;2.05;;;;;;;13.54;100.00;100432.56;5058316;28;20021;-78
2023/05/05 03:58:47;;;;;;;9.63;2.08;;;;;;;13.55;100.00;100428.59;5022177;28;20108;-78
2023/05/05 04:01:12;;;;;;;8.23;2.17;;;;;;;13.47;100.00;100425.75;5039486;28;20033;-78
2023/05/05 04:03:38;;;;;;;8.35;1.98;;;;;;;13.46;100.00;100424.94;5021808;28;20028;-78
2023/05/05 04:06:04;;;;;;;11.65;2.47;;;;;;;13.50;100.00;100422.31;5039956;28;20032;-78
2023/05/05 04:08:30;;;;;;;10.00;2.22;;;;;;;13.47;100.00;100423.78;5057667;28;20029;-78
2023/05/05 04:10:56;;;;;;;8.70;1.90;;;;;;;13.48;100.00;100427.38;5053911;28;20504;-78
2023/05/05 04:13:22;;;;;;;7.75;1.90;;;;;;;13.46;100.00;100413.78;5037623;28;20025;-78
2023/05/05 04:15:47;;;;;;;8.55;2.17;;;;;;;13.44;100.00;100421.63;5050756;28;20282;-78
2023/05/05 04:18:13;;;;;;;9.88;1.98;;;;;;;13.42;100.00;100423.91;5041384;28;20017;-78
2023/05/05 04:20:38;;;;;;;8.27;2.00;;;;;;;13.43;100.00;100419.13;5057993;28;20037;-78
2023/05/05 04:23:04;;;;;;;7.53;1.65;;;;;;;13.39;100.00;100419.78;5074722;28;20043;-78
2023/05/05 04:25:29;;;;;;;8.32;2.08;;;;;;;13.35;100.00;100429.91;5058289;28;20090;-78
2023/05/05 04:27:55;;;;;;;8.52;2.05;;;;;;;13.34;100.00;100427.44;5035278;28;20040;-79
2023/05/05 04:30:20;;;;;;;10.48;1.90;;;;;;;13.31;100.00;100420.53;5022640;28;20029;-78
2023/05/05 04:32:46;;;;;;;10.18;2.10;;;;;;;13.30;100.00;100420.84;5057669;28;20032;-78
2023/05/05 04:35:11;;;;;;;7.50;1.98;;;;;;;13.26;100.00;100426.25;5021524;28;20028;-78
2023/05/05 04:37:37;;;;;;;9.95;2.15;;;;;;;13.25;100.00;100427.34;5038034;28;20028;-78
2023/05/05 04:40:03;;;;;;;10.32;2.00;;;;;;;13.23;100.00;100426.81;5054893;28;20036;-79
2023/05/05 04:42:29;;;;;;;8.07;1.63;;;;;;;13.22;100.00;100424.34;5041742;28;20028;-78
2023/05/05 04:44:54;;;;;;;7.32;1.98;;;;;;;13.21;100.00;100422.72;5041228;28;20056;-78
2023/05/05 04:47:20;;;;;;;7.82;1.75;;;;;;;13.20;100.00;100424.66;5021711;28;20432;-78
2023/05/05 04:49:45;;;;;;;4.22;1.45;;;;;;;13.18;100.00;100427.78;5018414;28;20025;-78
2023/05/05 04:52:12;;;;;;;7.57;1.58;;;;;;;13.14;100.00;100429.53;5034145;28;20033;-78
2023/05/05 04:54:37;;;;;;;9.15;1.85;;;;;;;13.11;100.00;100430.16;5021768;28;20029;-78
2023/05/05 04:57:04;;;;;;;9.02;1.85;;;;;;;13.10;100.00;100436.06;5038192;28;20041;-78
2023/05/05 04:59:30;;;;;;;6.45;1.88;;;;;;;13.05;100.00;100434.19;5036261;28;20084;-79
2023/05/05 05:01:55;;;;;;;9.25;1.80;;;;;;;13.02;100.00;100443.19;5028127;28;20052;-78
2023/05/05 05:04:21;;;;;;;7.18;1.48;;;;;;;13.01;100.00;100435.97;5042127;28;20021;-78
2023/05/05 05:06:46;;;;;;;11.85;1.80;;;;;;;13.00;100.00;100445.44;5057551;28;20042;-78
2023/05/05 05:09:12;;;;;;;7.82;1.65;;;;;;;12.95;100.00;100443.63;5044774;28;20025;-78
2023/05/05 05:11:37;;;;;;;5.85;1.42;;;;;;;12.93;100.00;100442.28;5034648;28;20474;-78
2023/05/05 05:14:03;;;;;;;5.68;1.67;;;;;;;12.91;100.00;100447.34;5053248;28;20504;-78
2023/05/05 05:16:28;;;;;;;9.18;2.15;;;;;;;12.90;100.00;100456.84;5044438;28;20488;-78
2023/05/05 05:18:54;;;;;;;6.75;1.38;;;;;;;12.87;100.00;100465.78;5061198;28;20038;-79
2023/05/05 05:21:20;;;;;;;4.68;1.83;;;;;;;12.86;100.00;100462.19;5060870;28;20032;-79
2023/05/05 05:23:46;;;;;;;14.95;1.90;;;;;;;12.87;100.00;100463.84;5024856;28;20113;-78
2023/05/05 05:26:11;;;;;;;10.68;1.70;;;;;;;12.87;100.00;100468.59;5059959;28;20025;-78
2023/05/05 05:28:37;;;;;;;10.43;2.22;;;;;;;12.89;100.00;100475.50;5077551;28;20035;-78
2023/05/05 05:31:03;;;;;;;9.30;2.22;;;;;;;12.93;100.00;100470.16;5060850;28;20082;-78
2023/05/05 05:33:29;;;;;;;8.02;1.95;;;;;;;12.95;100.00;100481.78;5077645;28;20040;-78
2023/05/05 05:35:54;;;;;;;10.80;2.00;;;;;;;12.97;100.00;100479.53;5043885;28;20030;-78
2023/05/05 05:38:20;;;;;;;7.45;1.75;;;;;;;13.00;100.00;100484.47;5027727;28;20047;-78
2023/05/05 05:40:45;;;;;;;7.25;1.92;;;;;;;13.02;100.00;100486.97;5040919;28;20035;-79
2023/05/05 05:43:11;;;;;;;10.20;2.25;;;;;;;13.04;100.00;100485.53;5044048;28;20374;-78
2023/05/05 05:45:36;;;;;;;9.18;2.35;;;;;;;13.06;100.00;100483.22;5044228;28;20036;-78
2023/05/05 05:48:01;;;;;;;7.28;1.70;;;;;;;13.07;100.00;100484.91;5044081;28;20036;-79
2023/05/05 05:50:27;;;;;;;10.82;2.10;;;;;;;13.10;100.00;100489.03;5025526;28;20028;-78
2023/05/05 05:52:53;;;;;;;11.63;2.03;;;;;;;13.13;100.00;100493.97;5052072;28;20036;-78
2023/05/05 05:55:19;;;;;;;8.73;1.92;;;;;;;13.16;100.00;100498.94;5060483;28;20402;-79
2023/05/05 05:57:44;;;;;;;12.13;2.50;;;;;;;13.23;100.00;100493.75;5027222;28;20035;-77
2023/05/05 06:00:10;;;;;;;12.25;2.10;;;;;;;13.31;100.00;100497.78;5009825;28;20485;-79
2023/05/05 06:02:36;;;;;;;9.00;1.88;;;;;;;13.38;100.00;100496.25;5040496;28;20040;-79
2023/05/05 06:05:02;;;;;;;8.77;2.13;;;;;;;13.49;100.00;100494.06;5011820;28;20044;-78
2023/05/05 06:07:28;;;;;;;10.48;1.67;;;;;;;13.60;100.00;100484.31;5043638;28;20476;-78
2023/05/05 06:09:53;;;;;;;8.98;1.88;;;;;;;13.72;100.00;100485.72;5060401;28;20047;-78
2023/05/05 06:12:19;;;;;;;8.40;1.52;;;;;;;13.85;100.00;100493.22;5053621;28;20039;-78
2023/05/05 06:14:44;;;;;;;9.70;1.77;;;;;;;13.98;100.00;100491.47;5054417;28;20049;-78
2023/05/05 06:17:10;;;;;;;7.75;1.67;;;;;;;14.13;100.00;100493.91;5034132;28;20029;-78
2023/05/05 06:19:38;;;;;;;13.23;2.08;;;;;;;14.27;100.00;100491.03;5010564;28;20031;-79
2023/05/05 06:22:04;;;;;;;8.05;1.67;;;;;;;14.41;100.00;100488.97;5024142;28;20032;-79
2023/05/05 06:24:30;;;;;;;12.70;1.70;;;;;;;14.56;100.00;100489.72;5021593;28;20028;-79
2023/05/05 06:26:58;;;;;;;9.15;1.75;;;;;;;14.74;100.00;100497.06;5007311;28;20120;-79
2023/05/05 06:29:23;;;;;;;10.18;1.83;;;;;;;14.87;100.00;100496.09;5058177;28;20037;-79
2023/05/05 06:31:49;;;;;;;8.00;1.73;;;;;;;15.01;100.00;100496.00;5026699;28;20485;-79
2023/05/05 06:34:14;;;;;;;15.07;2.25;;;;;;;15.14;100.00;100499.81;5043012;28;20025;-79
2023/05/05 06:36:40;;;;;;;14.05;2.75;;;;;;;15.28;100.00;100499.69;5022937;28;20025;-79
2023/05/05 06:39:06;;;;;;;6.57;1.67;;;;;;;15.38;100.00;100499.38;5058304;28;20465;-79
2023/05/05 06:41:31;;;;;;;12.20;2.05;;;;;;;15.53;100.00;100504.50;5047677;28;20025;-79
2023/05/05 06:43:56;;;;;;;11.85;3.20;;;;;;;15.68;100.00;100508.81;5059540;28;20039;-80
2023/05/05 06:46:22;;;;;;;11.35;1.70;;;;;;;15.83;100.00;100499.94;5059261;28;20489;-80
2023/05/05 06:48:47;;;;;;;13.82;2.25;;;;;;;16.03;100.00;100501.25;5056139;28;20025;-72
2023/05/05 06:51:14;;;;;;;9.55;1.88;;;;;;;16.14;100.00;100503.72;5068897;28;20098;-78
2023/05/05 06:53:40;;;;;;;10.65;2.50;;;;;;;16.33;100.00;100506.16;5059366;28;20020;-80
2023/05/05 06:56:05;;;;;;;9.43;2.00;;;;;;;16.45;100.00;100509.09;5023151;28;20117;-80
2023/05/05 06:58:31;;;;;;;11.45;1.75;;;;;;;16.57;100.00;100509.19;5058216;28;20063;-80
2023/05/05 07:00:56;;;;;;;13.70;2.38;;;;;;;16.74;100.00;100511.97;5039302;28;20025;-80
2023/05/05 07:03:22;;;;;;;14.02;2.30;;;;;;;16.85;100.00;100506.81;5045193;28;20056;-79
2023/05/05 07:05:48;;;;;;;11.95;2.20;;;;;;;16.98;100.00;100504.97;5035226;28;20513;-80
2023/05/05 07:08:13;;;;;;;12.95;1.92;;;;;;;17.06;100.00;100512.50;5021737;28;20040;-80
2023/05/05 07:10:39;;;;;;;13.93;2.15;;;;;;;17.13;100.00;100507.19;5049887;28;20390;-81
2023/05/05 07:13:06;;;;;;;10.20;1.98;;;;;;;17.22;100.00;100514.72;5037750;28;20021;-80
2023/05/05 07:15:31;;;;;;;9.75;2.03;;;;;;;17.27;100.00;100511.72;5040897;28;20051;-80
2023/05/05 07:17:57;;;;;;;16.75;1.80;;;;;;;17.27;100.00;100512.53;5038666;28;20025;-80
2023/05/05 07:20:22;;;;;;;16.30;2.50;;;;;;;17.33;100.00;100516.00;5065744;28;20036;-81
2023/05/05 07:22:48;;;;;;;12.45;2.13;;;;;;;17.33;100.00;100510.41;5058525;28;20020;-80
2023/05/05 07:25:13;;;;;;;16.35;2.58;;;;;;;17.35;100.00;100522.91;5025874;28;20025;-79
2023/05/05 07:27:39;;;;;;;14.77;2.03;;;;;;;17.33;100.00;100521.63;5038031;28;20036;-79
2023/05/05 07:30:05;;;;;;;7.55;1.70;;;;;;;17.28;100.00;100504.97;5028658;28;20029;-79
2023/05/05 07:32:30;;;;;;;17.60;2.60;;;;;;;17.27;100.00;100511.72;5055556;28;20108;-79
2023/05/05 07:34:56;;;;;;;14.40;2.70;;;;;;;17.24;100.00;100523.63;5051438;28;20036;-78
2023/05/05 07:37:21;;;;;;;15.00;2.30;;;;;;;17.24;100.00;100506.78;5021609;28;20405;-79
2023/05/05 07:39:47;;;;;;;15.65;2.35;;;;;;;17.24;100.00;100513.22;5066257;28;20032;-79
2023/05/05 07:42:13;;;;;;;19.83;2.55;;;;;;;17.30;100.00;100520.31;5058573;28;20032;-79
2023/05/05 07:44:38;;;;;;;15.80;2.50;;;;;;;17.35;100.00;100524.88;5041895;28;20035;-79
2023/05/05 07:47:04;;;;;;;19.92;2.97;;;;;;;17.39;100.00;100525.88;5024090;28;20036;-79
2023/05/05 07:49:29;;;;;;;17.05;2.92;;;;;;;17.42;100.00;100522.38;5049283;28;20504;-79
2023/05/05 07:51:55;;;;;;;22.58;3.15;;;;;;;17.46;100.00;100526.13;5041628;28;20032;-78
2023/05/05 07:54:20;;;;;;;13.82;3.13;;;;;;;17.54;100.00;100533.69;5058351;28;20033;-79
2023/05/05 07:56:46;;;;;;;15.68;2.63;;;;;;;17.60;100.00;100529.50;5075034;28;20024;-78
2023/05/05 07:59:12;;;;;;;14.90;2.30;;;;;;;17.71;100.00;100520.69;5075051;28;20038;-78
2023/05/05 08:01:38;;;;;;;16.55;2.55;;;;;;;17.79;100.00;100517.84;5041818;28;20074;-78
2023/05/05 08:04:03;;;;;;;15.23;2.78;;;;;;;17.93;100.00;100511.13;5042019;28;20063;-79
2023/05/05 08:06:30;;;;;;;15.98;2.67;;;;;;;18.11;100.00;100518.25;5040134;28;20113;-79
2023/05/05 08:08:56;;;;;;;14.65;2.88;;;;;;;18.29;100.00;100513.25;5075031;28;20032;-79
2023/05/05 08:11:21;;;;;;;12.77;2.45;;;;;;;18.43;100.00;100513.78;5052274;28;20086;-79
2023/05/05 08:13:47;;;;;;;21.38;2.97;;;;;;;18.54;100.00;100525.41;5020552;28;20059;-79
2023/05/05 08:16:13;;;;;;;19.08;3.60;;;;;;;18.66;100.00;100518.97;5024415;28;20047;-79
2023/05/05 08:18:38;;;;;;;14.93;2.97;;;;;;;18.73;100.00;100516.44;5025044;28;20032;-79
2023/05/05 08:21:05;;;;;;;10.65;2.20;;;;;;;18.84;100.00;100514.84;5041030;28;20037;-79
2023/05/05 08:23:31;;;;;;;12.30;2.20;;;;;;;18.98;100.00;100512.50;5058010;28;20072;-78
2023/05/05 08:25:56;;;;;;;13.50;2.17;;;;;;;19.16;100.00;100517.88;5024780;28;20060;-79
2023/05/05 08:28:22;;;;;;;15.20;2.33;;;;;;;19.29;100.00;100516.72;5044333;28;20594;-79
2023/05/05 08:30:48;;;;;;;14.95;2.78;;;;;;;19.45;100.00;100518.84;5028810;28;20469;-79
2023/05/05 08:33:14;;;;;;;13.48;2.88;;;;;;;19.58;100.00;100517.63;5029079;28;20035;-79
2023/05/05 08:35:40;;;;;;;12.63;2.15;;;;;;;19.71;100.00;100515.63;5032000;28;20111;-79
2023/05/05 08:38:05;;;;;;;16.33;2.33;;;;;;;19.80;100.00;100517.13;5045402;28;20434;-79
2023/05/05 08:40:33;;;;;;;17.30;3.10;;;;;;;19.92;100.00;100515.44;5061951;28;20032;-79
2023/05/05 08:42:59;;;;;;;15.25;2.72;;;;;;;20.00;100.00;100522.94;5025645;28;20067;-78
2023/05/05 08:45:25;;;;;;;14.13;2.17;;;;;;;20.06;100.00;100513.88;5041688;28;20078;-78
2023/05/05 08:47:50;;;;;;;17.38;2.42;;;;;;;20.17;100.00;100510.53;5052260;28;20024;-79
2023/05/05 08:50:16;;;;;;;16.65;2.60;;;;;;;20.22;100.00;100499.00;5078244;28;20029;-77
2023/05/05 08:52:44;;;;;;;16.15;2.60;;;;;;;20.23;100.00;100506.31;5078146;28;20029;-77
2023/05/05 08:55:32;;;;;;;14.07;2.60;;;;;;;20.29;100.00;100508.50;5045409;28;20029;-78
2023/05/05 08:58:01;;;;;;;14.25;3.08;;;;;;;20.40;100.00;100505.16;5044953;28;20031;-78
2023/05/05 09:00:27;;;;;;;13.35;2.58;;;;;;;20.44;100.00;100514.53;5061939;28;20021;-78
2023/05/05 09:02:55;;;;;;;19.55;2.72;;;;;;;20.47;100.00;100508.16;5031210;28;20037;-71
2023/05/05 09:05:23;;;;;;;14.43;2.30;;;;;;;20.51;100.00;100507.06;5056210;28;20036;-78
2023/05/05 09:07:49;;;;;;;15.80;2.60;;;;;;;20.53;100.00;100518.00;5057840;28;20041;-78
2023/05/05 09:10:15;;;;;;;13.48;2.40;;;;;;;20.56;100.00;100510.84;5044745;28;20366;-78
2023/05/05 09:12:40;;;;;;;14.05;2.78;;;;;;;20.60;100.00;100506.94;5057026;28;20110;-77
2023/05/05 09:15:10;;;;;;;12.75;2.42;;;;;;;20.67;100.00;100500.66;5061316;28;20029;-78
2023/05/05 09:17:36;;;;;;;17.95;2.60;;;;;;;20.72;100.00;100506.84;5044553;28;20074;-78
2023/05/05 09:20:06;;;;;;;14.35;2.08;;;;;;;20.80;100.00;100510.69;5061467;28;20024;-77
2023/05/05 09:22:52;;;;;;;15.52;2.42;;;;;;;20.82;100.00;100518.81;5042537;28;20094;-78
2023/05/05 09:25:17;;;;;;;18.23;2.45;;;;;;;20.80;100.00;100519.16;5060803;28;20044;-77
2023/05/05 09:27:47;;;;;;;11.07;2.03;;;;;;;20.81;100.00;100512.34;5061205;28;20147;-77
2023/05/05 09:30:17;;;;;;;12.10;2.10;;;;;;;20.83;100.00;100521.25;5050834;28;20029;-77
2023/05/05 09:32:43;;;;;;;13.13;2.42;;;;;;;20.85;100.00;100523.72;5043352;28;20050;-77
2023/05/05 09:35:09;;;;;;;15.75;2.83;;;;;;;20.88;100.00;100515.34;5061052;28;20024;-78
2023/05/05 09:37:34;;;;;;;15.82;2.80;;;;;;;20.91;100.00;100519.44;5038410;28;20514;-77
2023/05/05 09:40:00;;;;;;;11.65;2.42;;;;;;;20.93;100.00;100517.06;5032744;28;20048;-77
2023/05/05 09:42:26;;;;;;;13.15;2.28;;;;;;;20.91;100.00;100517.41;5025278;28;20116;-76
2023/05/05 09:44:51;;;;;;;12.82;2.38;;;;;;;20.95;100.00;100514.72;5060977;28;20025;-77
2023/05/05 09:47:17;;;;;;;13.55;2.40;;;;;;;21.07;100.00;100513.78;5021848;28;20437;-77
2023/05/05 09:49:43;;;;;;;11.75;2.08;;;;;;;21.18;100.00;100504.38;5053614;28;20481;-77
2023/05/05 09:52:14;;;;;;;11.60;2.30;;;;;;;21.26;100.00;100498.94;5043663;28;20036;-77
2023/05/05 09:54:41;;;;;;;10.50;2.10;;;;;;;21.40;100.00;100504.94;5019210;28;20033;-78
2023/05/05 09:57:06;;;;;;;12.48;2.20;;;;;;;21.57;100.00;100498.88;5028032;28;20078;-78
2023/05/05 09:59:32;;;;;;;11.85;2.33;;;;;;;21.70;100.00;100507.22;5045409;28;20028;-78
2023/05/05 10:02:14;;;;;;;10.00;2.25;;;;;;;21.90;100.00;100502.38;5027586;28;20060;-77
2023/05/05 10:04:40;;;;;;;13.40;2.53;;;;;;;22.12;100.00;100498.00;5058489;28;20029;-77
2023/05/05 10:07:05;;;;;;;11.65;2.25;;;;;;;22.29;100.00;100498.41;5042271;28;20040;-77
2023/05/05 10:09:31;;;;;;;10.88;2.03;;;;;;;22.46;100.00;100494.28;5074652;28;20024;-77
2023/05/05 10:11:58;;;;;;;7.88;1.65;;;;;;;22.59;100.00;100491.25;5021871;28;20486;-77
2023/05/05 10:14:24;;;;;;;7.07;1.92;;;;;;;22.70;99.84;100484.59;5024775;28;20037;-77
2023/05/05 10:16:50;;;;;;;9.55;2.13;;;;;;;22.76;96.22;100490.75;5032571;28;20460;-77
2023/05/05 10:19:17;;;;;;;11.02;1.95;;;;;;;22.79;95.16;100484.38;5054958;28;20461;-77
2023/05/05 10:22:07;;;;;;;11.23;1.95;;;;;;;22.78;97.97;100494.03;5050276;28;20032;-77
2023/05/05 10:24:41;;;;;;;11.23;1.80;;;;;;;22.73;96.38;100489.53;5031750;28;20132;-77
2023/05/05 10:27:11;;;;;;;11.85;2.05;;;;;;;22.58;95.91;100500.97;5033920;28;20028;-77
2023/05/05 10:30:00;;;;;;;8.50;2.28;;;;;;;22.54;97.67;100495.25;5059606;28;20043;-77
2023/05/05 10:32:28;;;;;;;8.43;1.73;;;;;;;22.49;98.44;100495.56;5053804;28;20040;-77
2023/05/05 10:35:00;;;;;;;10.35;1.67;;;;;;;22.43;100.00;100497.88;5033667;28;20033;-77
2023/05/05 10:37:26;;;;;;;11.65;2.25;;;;;;;22.34;100.00;100491.59;5056156;28;20031;-77
2023/05/05 10:39:51;;;;;;;12.73;2.10;;;;;;;22.28;100.00;100493.94;5027513;28;20028;-77
2023/05/05 10:42:18;;;;;;;9.43;1.88;;;;;;;22.36;100.00;100488.41;5043077;28;20370;-77
2023/05/05 10:44:44;;;;;;;9.55;1.65;;;;;;;22.37;100.00;100485.22;5043099;28;20024;-77
2023/05/05 10:47:09;;;;;;;9.13;1.95;;;;;;;22.43;100.00;100480.88;5042713;28;20048;-77
2023/05/05 10:49:40;;;;;;;6.50;1.48;;;;;;;22.55;100.00;100481.91;5042899;28;20029;-77
2023/05/05 10:52:20;;;;;;;10.20;1.90;;;;;;;22.69;100.00;100482.16;5057794;28;20055;-77
2023/05/05 10:55:06;;;;;;;12.02;1.98;;;;;;;22.83;100.00;100471.09;5069138;28;20473;-77
2023/05/05 10:57:32;;;;;;;9.25;1.83;;;;;;;22.98;100.00;100480.66;5028468;28;20029;-77
2023/05/05 10:59:57;;;;;;;9.52;2.00;;;;;;;23.06;100.00;100465.41;5015965;28;20036;-77
2023/05/05 11:02:24;;;;;;;10.50;2.50;;;;;;;23.10;100.00;100474.81;5025652;28;20078;-77
2023/05/05 11:05:20;;;;;;;13.07;2.05;;;;;;;23.01;100.00;100484.75;5065363;28;20025;-77
2023/05/05 11:07:49;;;;;;;10.18;2.00;;;;;;;22.97;100.00;100490.34;5049534;28;20040;-77
2023/05/05 11:10:19;;;;;;;10.25;1.83;;;;;;;22.83;100.00;100488.06;5028497;28;20025;-77
2023/05/05 11:13:13;;;;;;;13.52;1.98;;;;;;;22.64;100.00;100477.63;5037259;28;20052;-77